sensor_id;sensor_type;location;lat;lon;timestamp;pressure;altitude;pressure_sealevel;temperature;humidity
60055;BME280;45930;53.514;55.904;2023-03-14T00:00:45;49088.41;;;-149.77;96.14
60055;BME280;45930;53.514;55.904;2023-03-14T00:01:46;49064.63;;;-149.77;96.35
60055;BME280;45930;53.514;55.904;2023-03-14T00:02:52;49082.44;;;-149.77;94.36
60055;BME280;45930;53.514;55.904;2023-03-14T00:03:53;49088.41;;;-149.77;94.66
60055;BME280;45930;53.514;55.904;2023-03-14T00:04:55;49044.81;;;-149.77;95.08
60055;BME280;45930;53.514;55.904;2023-03-14T00:05:56;49078.50;;;-149.77;94.97
60055;BME280;45930;53.514;55.904;2023-03-14T00:06:57;49060.66;;;-149.77;95.68
60055;BME280;45930;53.514;55.904;2023-03-14T00:07:58;49092.34;;;-149.77;95.91
60055;BME280;45930;53.514;55.904;2023-03-14T00:08:59;49066.59;;;-149.77;96.73
60055;BME280;45930;53.514;55.904;2023-03-14T00:09:59;49070.56;;;-149.77;97.39
60055;BME280;45930;53.514;55.904;2023-03-14T00:11:08;49056.69;;;-149.77;95.86
60055;BME280;45930;53.514;55.904;2023-03-14T00:12:09;49038.88;;;-149.77;96.08
60055;BME280;45930;53.514;55.904;2023-03-14T00:13:10;49082.44;;;-149.77;95.51
60055;BME280;45930;53.514;55.904;2023-03-14T00:14:11;49076.50;;;-149.77;95.63
60055;BME280;45930;53.514;55.904;2023-03-14T00:15:12;49096.31;;;-149.77;95.96
60055;BME280;45930;53.514;55.904;2023-03-14T00:16:13;49068.59;;;-149.77;96.42
60055;BME280;45930;53.514;55.904;2023-03-14T00:17:14;49062.66;;;-149.77;96.39
60055;BME280;45930;53.514;55.904;2023-03-14T00:18:15;49068.59;;;-149.77;95.49
60055;BME280;45930;53.514;55.904;2023-03-14T00:19:16;49068.59;;;-149.77;94.41
60055;BME280;45930;53.514;55.904;2023-03-14T00:20:16;49092.34;;;-149.77;94.41
60055;BME280;45930;53.514;55.904;2023-03-14T00:21:19;49088.41;;;-149.77;93.79
60055;BME280;45930;53.514;55.904;2023-03-14T00:22:20;49102.25;;;-149.77;92.94
60055;BME280;45930;53.514;55.904;2023-03-14T00:23:21;49098.28;;;-149.77;93.30
60055;BME280;45930;53.514;55.904;2023-03-14T00:24:22;49092.34;;;-149.77;94.00
60055;BME280;45930;53.514;55.904;2023-03-14T00:25:22;49086.41;;;-149.77;94.37
60055;BME280;45930;53.514;55.904;2023-03-14T00:26:23;49088.41;;;-149.77;94.46
60055;BME280;45930;53.514;55.904;2023-03-14T00:27:24;49116.13;;;-149.77;94.04
60055;BME280;45930;53.514;55.904;2023-03-14T00:28:25;49106.22;;;-149.77;94.04
60055;BME280;45930;53.514;55.904;2023-03-14T00:29:25;49090.38;;;-149.77;94.92
60055;BME280;45930;53.514;55.904;2023-03-14T00:30:26;49084.44;;;-149.77;94.87
60055;BME280;45930;53.514;55.904;2023-03-14T00:31:27;49092.34;;;-149.77;94.21
60055;BME280;45930;53.514;55.904;2023-03-14T00:32:28;49076.50;;;-149.77;94.08
60055;BME280;45930;53.514;55.904;2023-03-14T00:33:29;49064.63;;;-149.77;94.19
60055;BME280;45930;53.514;55.904;2023-03-14T00:34:30;49076.50;;;-149.77;94.81
60055;BME280;45930;53.514;55.904;2023-03-14T00:35:31;49108.19;;;-149.77;94.10
60055;BME280;45930;53.514;55.904;2023-03-14T00:36:32;49110.19;;;-149.77;93.73
60055;BME280;45930;53.514;55.904;2023-03-14T00:37:33;49108.19;;;-149.77;94.25
60055;BME280;45930;53.514;55.904;2023-03-14T00:38:33;49118.09;;;-149.77;93.85
60055;BME280;45930;53.514;55.904;2023-03-14T00:39:35;49090.38;;;-149.77;94.45
60055;BME280;45930;53.514;55.904;2023-03-14T00:40:39;49084.44;;;-149.77;95.23
60055;BME280;45930;53.514;55.904;2023-03-14T00:41:40;49070.56;;;-149.77;95.74
60055;BME280;45930;53.514;55.904;2023-03-14T00:42:40;49096.31;;;-149.77;96.23
60055;BME280;45930;53.514;55.904;2023-03-14T00:43:42;49090.38;;;-149.77;96.06
60055;BME280;45930;53.514;55.904;2023-03-14T00:44:43;49090.38;;;-149.77;96.47
60055;BME280;45930;53.514;55.904;2023-03-14T00:45:44;49056.69;;;-149.77;96.85
60055;BME280;45930;53.514;55.904;2023-03-14T00:46:44;49066.59;;;-149.77;96.30
60055;BME280;45930;53.514;55.904;2023-03-14T00:47:45;49098.28;;;-149.77;97.01
60055;BME280;45930;53.514;55.904;2023-03-14T00:48:46;49078.50;;;-149.77;97.40
60055;BME280;45930;53.514;55.904;2023-03-14T00:49:47;49074.53;;;-149.77;97.10
60055;BME280;45930;53.514;55.904;2023-03-14T00:50:48;49070.56;;;-149.77;96.71
60055;BME280;45930;53.514;55.904;2023-03-14T00:51:49;49086.41;;;-149.77;97.43
60055;BME280;45930;53.514;55.904;2023-03-14T00:52:50;49062.66;;;-149.77;96.82
60055;BME280;45930;53.514;55.904;2023-03-14T00:53:50;49106.22;;;-149.77;96.81
60055;BME280;45930;53.514;55.904;2023-03-14T00:54:51;49078.50;;;-149.77;96.30
60055;BME280;45930;53.514;55.904;2023-03-14T00:55:52;49072.53;;;-149.77;95.35
60055;BME280;45930;53.514;55.904;2023-03-14T00:56:53;49086.41;;;-149.77;95.23
60055;BME280;45930;53.514;55.904;2023-03-14T00:57:53;49090.38;;;-149.77;95.02
60055;BME280;45930;53.514;55.904;2023-03-14T00:58:55;49064.63;;;-149.77;94.99
60055;BME280;45930;53.514;55.904;2023-03-14T00:59:56;49074.53;;;-149.77;94.90
60055;BME280;45930;53.514;55.904;2023-03-14T01:00:56;49102.25;;;-149.77;94.66
60055;BME280;45930;53.514;55.904;2023-03-14T01:01:57;49128.00;;;-149.77;95.13
60055;BME280;45930;53.514;55.904;2023-03-14T01:02:58;49086.41;;;-149.77;94.97
60055;BME280;45930;53.514;55.904;2023-03-14T01:03:59;49088.41;;;-149.77;94.79
60055;BME280;45930;53.514;55.904;2023-03-14T01:05:00;49108.19;;;-149.77;94.85
60055;BME280;45930;53.514;55.904;2023-03-14T01:06:14;49092.34;;;-149.77;95.02
60055;BME280;45930;53.514;55.904;2023-03-14T01:07:15;49096.31;;;-149.77;94.80
60055;BME280;45930;53.514;55.904;2023-03-14T01:08:16;49088.41;;;-149.77;94.44
60055;BME280;45930;53.514;55.904;2023-03-14T01:09:17;49114.16;;;-149.77;93.82
60055;BME280;45930;53.514;55.904;2023-03-14T01:10:18;49084.44;;;-149.77;94.35
60055;BME280;45930;53.514;55.904;2023-03-14T01:11:28;49100.28;;;-149.77;94.83
60055;BME280;45930;53.514;55.904;2023-03-14T01:12:29;49094.34;;;-149.77;95.06
60055;BME280;45930;53.514;55.904;2023-03-14T01:13:29;49112.16;;;-149.77;95.30
60055;BME280;45930;53.514;55.904;2023-03-14T01:14:30;49104.25;;;-149.77;95.32
60055;BME280;45930;53.514;55.904;2023-03-14T01:15:32;49108.19;;;-149.77;95.51
60055;BME280;45930;53.514;55.904;2023-03-14T01:16:34;49090.38;;;-149.77;95.75
60055;BME280;45930;53.514;55.904;2023-03-14T01:17:35;49110.19;;;-149.77;95.85
60055;BME280;45930;53.514;55.904;2023-03-14T01:18:39;49110.19;;;-149.77;95.44
60055;BME280;45930;53.514;55.904;2023-03-14T01:19:40;49122.06;;;-149.77;94.90
60055;BME280;45930;53.514;55.904;2023-03-14T01:20:41;49094.34;;;-149.77;95.36
60055;BME280;45930;53.514;55.904;2023-03-14T01:21:42;49116.13;;;-149.77;95.04
60055;BME280;45930;53.514;55.904;2023-03-14T01:22:43;49145.84;;;-149.77;95.14
60055;BME280;45930;53.514;55.904;2023-03-14T01:23:45;49098.28;;;-149.77;95.03
60055;BME280;45930;53.514;55.904;2023-03-14T01:24:46;49116.13;;;-149.77;95.46
60055;BME280;45930;53.514;55.904;2023-03-14T01:25:47;49122.06;;;-149.77;95.29
60055;BME280;45930;53.514;55.904;2023-03-14T01:26:47;49116.13;;;-149.77;95.13
60055;BME280;45930;53.514;55.904;2023-03-14T01:27:48;49120.09;;;-149.77;95.28
60055;BME280;45930;53.514;55.904;2023-03-14T01:28:51;49104.25;;;-149.77;94.99
60055;BME280;45930;53.514;55.904;2023-03-14T01:29:52;49143.84;;;-149.77;95.08
60055;BME280;45930;53.514;55.904;2023-03-14T01:30:52;49135.94;;;-149.77;94.92
60055;BME280;45930;53.514;55.904;2023-03-14T01:31:53;49131.97;;;-149.77;94.97
60055;BME280;45930;53.514;55.904;2023-03-14T01:32:54;49135.94;;;-149.77;95.20
60055;BME280;45930;53.514;55.904;2023-03-14T01:33:55;49120.09;;;-149.77;95.62
60055;BME280;45930;53.514;55.904;2023-03-14T01:34:56;49128.00;;;-149.77;95.98
60055;BME280;45930;53.514;55.904;2023-03-14T01:35:57;49090.38;;;-149.77;96.63
60055;BME280;45930;53.514;55.904;2023-03-14T01:36:58;49131.97;;;-149.77;96.41
60055;BME280;45930;53.514;55.904;2023-03-14T01:37:59;49120.09;;;-149.77;96.67
60055;BME280;45930;53.514;55.904;2023-03-14T01:38:59;49112.16;;;-149.77;97.02
60055;BME280;45930;53.514;55.904;2023-03-14T01:40:00;49124.03;;;-149.77;97.46
60055;BME280;45930;53.514;55.904;2023-03-14T01:41:02;49102.25;;;-149.77;97.48
60055;BME280;45930;53.514;55.904;2023-03-14T01:42:03;49094.34;;;-149.77;97.34
60055;BME280;45930;53.514;55.904;2023-03-14T01:43:16;49100.28;;;-149.77;96.89
60055;BME280;45930;53.514;55.904;2023-03-14T01:44:18;49124.03;;;-149.77;96.94
60055;BME280;45930;53.514;55.904;2023-03-14T01:46:56;49124.03;;;-149.77;97.24
60055;BME280;45930;53.514;55.904;2023-03-14T01:47:57;49130.00;;;-149.77;97.43
60055;BME280;45930;53.514;55.904;2023-03-14T01:50:10;49116.13;;;-149.77;97.30
60055;BME280;45930;53.514;55.904;2023-03-14T01:52:46;49130.00;;;-149.77;96.95
60055;BME280;45930;53.514;55.904;2023-03-14T01:53:49;49128.00;;;-149.77;96.82
60055;BME280;45930;53.514;55.904;2023-03-14T01:55:15;49116.13;;;-149.77;97.11
60055;BME280;45930;53.514;55.904;2023-03-14T01:56:17;49126.03;;;-149.77;97.09
60055;BME280;45930;53.514;55.904;2023-03-14T01:57:20;49110.19;;;-149.77;96.71
60055;BME280;45930;53.514;55.904;2023-03-14T01:58:24;49159.69;;;-149.77;96.33
60055;BME280;45930;53.514;55.904;2023-03-14T01:59:29;49161.69;;;-149.77;96.71
60055;BME280;45930;53.514;55.904;2023-03-14T02:00:31;49161.69;;;-149.77;95.41
60055;BME280;45930;53.514;55.904;2023-03-14T02:01:32;49167.63;;;-149.77;95.01
60055;BME280;45930;53.514;55.904;2023-03-14T02:02:34;49169.59;;;-149.77;94.12
60055;BME280;45930;53.514;55.904;2023-03-14T02:03:42;49193.38;;;-149.77;93.35
60055;BME280;45930;53.514;55.904;2023-03-14T02:04:46;49217.13;;;-149.77;91.22
60055;BME280;45930;53.514;55.904;2023-03-14T02:05:48;49203.28;;;-149.77;90.94
60055;BME280;45930;53.514;55.904;2023-03-14T02:06:55;49229.03;;;-149.77;89.97
60055;BME280;45930;53.514;55.904;2023-03-14T02:07:59;49236.94;;;-149.77;88.75
60055;BME280;45930;53.514;55.904;2023-03-14T02:09:01;49252.78;;;-149.77;88.06
60055;BME280;45930;53.514;55.904;2023-03-14T02:10:03;49250.81;;;-149.77;87.11
60055;BME280;45930;53.514;55.904;2023-03-14T02:11:05;49250.81;;;-149.77;86.38
60055;BME280;45930;53.514;55.904;2023-03-14T02:12:08;49238.94;;;-149.77;85.22
60055;BME280;45930;53.514;55.904;2023-03-14T02:13:10;49282.50;;;-149.77;84.24
60055;BME280;45930;53.514;55.904;2023-03-14T02:14:30;49258.75;;;-149.77;84.04
60055;BME280;45930;53.514;55.904;2023-03-14T02:15:32;49264.69;;;-149.77;83.37
60055;BME280;45930;53.514;55.904;2023-03-14T02:16:34;49320.16;;;-149.77;82.73
60055;BME280;45930;53.514;55.904;2023-03-14T02:17:35;49294.41;;;-149.77;81.92
60055;BME280;45930;53.514;55.904;2023-03-14T02:18:37;49306.28;;;-149.77;81.07
60055;BME280;45930;53.514;55.904;2023-03-14T02:21:17;49298.34;;;-149.77;78.80
60055;BME280;45930;53.514;55.904;2023-03-14T02:22:19;49337.97;;;-149.77;79.15
60055;BME280;45930;53.514;55.904;2023-03-14T02:23:44;49320.16;;;-149.77;79.08
60055;BME280;45930;53.514;55.904;2023-03-14T02:26:13;49292.41;;;-149.77;79.09
60055;BME280;45930;53.514;55.904;2023-03-14T02:27:18;49326.09;;;-149.77;78.61
60055;BME280;45930;53.514;55.904;2023-03-14T02:28:20;49330.03;;;-149.77;78.74
60055;BME280;45930;53.514;55.904;2023-03-14T02:29:21;49324.09;;;-149.77;78.28
60055;BME280;45930;53.514;55.904;2023-03-14T02:30:25;49296.38;;;-149.77;78.13
60055;BME280;45930;53.514;55.904;2023-03-14T02:31:27;49316.19;;;-149.77;77.93
60055;BME280;45930;53.514;55.904;2023-03-14T02:32:30;49314.19;;;-149.77;77.16
60055;BME280;45930;53.514;55.904;2023-03-14T02:33:32;49345.91;;;-149.77;77.50
60055;BME280;45930;53.514;55.904;2023-03-14T02:34:33;49351.84;;;-149.77;78.32
60055;BME280;45930;53.514;55.904;2023-03-14T02:36:55;49320.16;;;-149.77;77.72
60055;BME280;45930;53.514;55.904;2023-03-14T02:39:26;49314.19;;;-149.77;77.72
60055;BME280;45930;53.514;55.904;2023-03-14T02:40:29;49314.19;;;-149.77;76.50
60055;BME280;45930;53.514;55.904;2023-03-14T02:41:30;49330.03;;;-149.77;76.67
60055;BME280;45930;53.514;55.904;2023-03-14T02:42:31;49337.97;;;-149.77;75.82
60055;BME280;45930;53.514;55.904;2023-03-14T02:43:32;49322.13;;;-149.77;76.09
60055;BME280;45930;53.514;55.904;2023-03-14T02:44:33;49339.94;;;-149.77;75.42
60055;BME280;45930;53.514;55.904;2023-03-14T02:45:44;49330.03;;;-149.77;75.02
60055;BME280;45930;53.514;55.904;2023-03-14T02:46:45;49328.06;;;-149.77;75.85
60055;BME280;45930;53.514;55.904;2023-03-14T02:47:50;49361.75;;;-149.77;75.33
60055;BME280;45930;53.514;55.904;2023-03-14T02:49:13;49373.63;;;-149.77;75.22
60055;BME280;45930;53.514;55.904;2023-03-14T02:50:18;49345.91;;;-149.77;74.89
60055;BME280;45930;53.514;55.904;2023-03-14T02:51:21;49339.94;;;-149.77;74.79
60055;BME280;45930;53.514;55.904;2023-03-14T02:52:22;49337.97;;;-149.77;75.60
60055;BME280;45930;53.514;55.904;2023-03-14T02:53:31;49345.91;;;-149.77;75.32
60055;BME280;45930;53.514;55.904;2023-03-14T02:54:32;49355.78;;;-149.77;74.64
60055;BME280;45930;53.514;55.904;2023-03-14T02:55:33;49369.66;;;-149.77;74.34
60055;BME280;45930;53.514;55.904;2023-03-14T02:56:34;49375.59;;;-149.77;73.92
60055;BME280;45930;53.514;55.904;2023-03-14T02:57:35;49391.44;;;-149.77;74.42
60055;BME280;45930;53.514;55.904;2023-03-14T02:58:36;49383.53;;;-149.77;75.02
60055;BME280;45930;53.514;55.904;2023-03-14T02:59:37;49385.50;;;-149.77;74.29
60055;BME280;45930;53.514;55.904;2023-03-14T03:00:38;49377.59;;;-149.77;74.64
60055;BME280;45930;53.514;55.904;2023-03-14T03:01:38;49339.94;;;-149.77;74.80
60055;BME280;45930;53.514;55.904;2023-03-14T03:02:39;49349.84;;;-149.77;74.61
60055;BME280;45930;53.514;55.904;2023-03-14T03:03:40;49361.75;;;-149.77;73.96
60055;BME280;45930;53.514;55.904;2023-03-14T03:04:41;49369.66;;;-149.77;72.98
60055;BME280;45930;53.514;55.904;2023-03-14T03:05:41;49399.38;;;-149.77;73.66
60055;BME280;45930;53.514;55.904;2023-03-14T03:06:45;49337.97;;;-149.77;73.05
60055;BME280;45930;53.514;55.904;2023-03-14T03:07:46;49347.88;;;-149.77;73.11
60055;BME280;45930;53.514;55.904;2023-03-14T03:08:46;49377.59;;;-149.77;73.15
60055;BME280;45930;53.514;55.904;2023-03-14T03:09:47;49361.75;;;-149.77;72.93
60055;BME280;45930;53.514;55.904;2023-03-14T03:10:49;49334.00;;;-149.77;73.32
60055;BME280;45930;53.514;55.904;2023-03-14T03:11:50;49343.91;;;-149.77;73.34
60055;BME280;45930;53.514;55.904;2023-03-14T03:12:50;49337.97;;;-149.77;73.28
60055;BME280;45930;53.514;55.904;2023-03-14T03:13:52;49369.66;;;-149.77;73.94
60055;BME280;45930;53.514;55.904;2023-03-14T03:14:52;49351.84;;;-149.77;73.51
60055;BME280;45930;53.514;55.904;2023-03-14T03:15:53;49389.47;;;-149.77;73.13
60055;BME280;45930;53.514;55.904;2023-03-14T03:16:54;49369.66;;;-149.77;73.87
60055;BME280;45930;53.514;55.904;2023-03-14T03:17:55;49369.66;;;-149.77;73.80
60055;BME280;45930;53.514;55.904;2023-03-14T03:18:55;49339.94;;;-149.77;73.51
60055;BME280;45930;53.514;55.904;2023-03-14T03:19:56;49357.78;;;-149.77;73.28
60055;BME280;45930;53.514;55.904;2023-03-14T03:21:02;49353.81;;;-149.77;72.85
60055;BME280;45930;53.514;55.904;2023-03-14T03:22:03;49375.59;;;-149.77;72.93
60055;BME280;45930;53.514;55.904;2023-03-14T03:23:04;49341.94;;;-149.77;74.25
60055;BME280;45930;53.514;55.904;2023-03-14T03:24:05;49361.75;;;-149.77;74.33
60055;BME280;45930;53.514;55.904;2023-03-14T03:25:07;49385.50;;;-149.77;74.50
60055;BME280;45930;53.514;55.904;2023-03-14T03:26:09;49359.75;;;-149.77;75.03
60055;BME280;45930;53.514;55.904;2023-03-14T03:27:10;49379.56;;;-149.77;74.53
60055;BME280;45930;53.514;55.904;2023-03-14T03:28:11;49357.78;;;-149.77;74.75
60055;BME280;45930;53.514;55.904;2023-03-14T03:29:11;49369.66;;;-149.77;75.00
60055;BME280;45930;53.514;55.904;2023-03-14T03:30:12;49347.88;;;-149.77;74.44
60055;BME280;45930;53.514;55.904;2023-03-14T03:31:13;49385.50;;;-149.77;74.68
60055;BME280;45930;53.514;55.904;2023-03-14T03:32:14;49373.63;;;-149.77;74.53
60055;BME280;45930;53.514;55.904;2023-03-14T03:33:15;49355.78;;;-149.77;74.44
60055;BME280;45930;53.514;55.904;2023-03-14T03:34:15;49389.47;;;-149.77;73.95
60055;BME280;45930;53.514;55.904;2023-03-14T03:35:16;49365.69;;;-149.77;74.22
60055;BME280;45930;53.514;55.904;2023-03-14T03:36:21;49369.66;;;-149.77;74.17
60055;BME280;45930;53.514;55.904;2023-03-14T03:37:23;49373.63;;;-149.77;74.24
60055;BME280;45930;53.514;55.904;2023-03-14T03:38:24;49393.44;;;-149.77;74.52
60055;BME280;45930;53.514;55.904;2023-03-14T03:39:25;49393.44;;;-149.77;73.86
60055;BME280;45930;53.514;55.904;2023-03-14T03:40:26;49365.69;;;-149.77;74.05
60055;BME280;45930;53.514;55.904;2023-03-14T03:41:27;49387.50;;;-149.77;74.37
60055;BME280;45930;53.514;55.904;2023-03-14T03:42:28;49357.78;;;-149.77;74.51
60055;BME280;45930;53.514;55.904;2023-03-14T03:43:28;49385.50;;;-149.77;74.64
60055;BME280;45930;53.514;55.904;2023-03-14T03:44:29;49361.75;;;-149.77;74.44
60055;BME280;45930;53.514;55.904;2023-03-14T03:45:30;49387.50;;;-149.77;74.33
60055;BME280;45930;53.514;55.904;2023-03-14T03:46:31;49393.44;;;-149.77;74.28
60055;BME280;45930;53.514;55.904;2023-03-14T03:47:32;49363.72;;;-149.77;74.51
60055;BME280;45930;53.514;55.904;2023-03-14T03:48:34;49373.63;;;-149.77;74.32
60055;BME280;45930;53.514;55.904;2023-03-14T03:49:35;49391.44;;;-149.77;73.88
60055;BME280;45930;53.514;55.904;2023-03-14T03:50:35;49405.31;;;-149.77;74.15
60055;BME280;45930;53.514;55.904;2023-03-14T03:51:36;49383.53;;;-149.77;73.71
60055;BME280;45930;53.514;55.904;2023-03-14T03:52:37;49383.53;;;-149.77;73.59
60055;BME280;45930;53.514;55.904;2023-03-14T03:53:38;49393.44;;;-149.77;73.87
60055;BME280;45930;53.514;55.904;2023-03-14T03:54:39;49393.44;;;-149.77;74.49
60055;BME280;45930;53.514;55.904;2023-03-14T03:55:42;49379.56;;;-149.77;75.19
60055;BME280;45930;53.514;55.904;2023-03-14T03:56:43;49385.50;;;-149.77;75.63
60055;BME280;45930;53.514;55.904;2023-03-14T03:57:44;49405.31;;;-149.77;75.57
60055;BME280;45930;53.514;55.904;2023-03-14T03:58:45;49391.44;;;-149.77;75.92
60055;BME280;45930;53.514;55.904;2023-03-14T03:59:45;49363.72;;;-149.77;76.33
60055;BME280;45930;53.514;55.904;2023-03-14T04:00:46;49391.44;;;-149.77;76.17
60055;BME280;45930;53.514;55.904;2023-03-14T04:01:47;49375.59;;;-149.77;76.58
60055;BME280;45930;53.514;55.904;2023-03-14T04:02:48;49365.69;;;-149.77;75.73
60055;BME280;45930;53.514;55.904;2023-03-14T04:03:49;49391.44;;;-149.77;75.16
60055;BME280;45930;53.514;55.904;2023-03-14T04:04:49;49399.38;;;-149.77;75.35
60055;BME280;45930;53.514;55.904;2023-03-14T04:06:04;49377.59;;;-149.77;74.95
60055;BME280;45930;53.514;55.904;2023-03-14T04:07:05;49377.59;;;-149.77;74.47
60055;BME280;45930;53.514;55.904;2023-03-14T04:08:06;49381.56;;;-149.77;74.66
60055;BME280;45930;53.514;55.904;2023-03-14T04:09:08;49367.69;;;-149.77;74.68
60055;BME280;45930;53.514;55.904;2023-03-14T04:10:09;49369.66;;;-149.77;74.33
60055;BME280;45930;53.514;55.904;2023-03-14T04:11:10;49385.50;;;-149.77;75.24
60055;BME280;45930;53.514;55.904;2023-03-14T04:12:11;49403.34;;;-149.77;75.52
60055;BME280;45930;53.514;55.904;2023-03-14T04:13:12;49369.66;;;-149.77;75.41
60055;BME280;45930;53.514;55.904;2023-03-14T04:14:13;49387.50;;;-149.77;75.37
60055;BME280;45930;53.514;55.904;2023-03-14T04:15:14;49393.44;;;-149.77;75.62
60055;BME280;45930;53.514;55.904;2023-03-14T04:16:23;49403.34;;;-149.77;75.28
60055;BME280;45930;53.514;55.904;2023-03-14T04:17:24;49355.78;;;-149.77;75.20
60055;BME280;45930;53.514;55.904;2023-03-14T04:18:24;49369.66;;;-149.77;74.71
60055;BME280;45930;53.514;55.904;2023-03-14T04:19:26;49361.75;;;-149.77;74.13
60055;BME280;45930;53.514;55.904;2023-03-14T04:20:26;49375.59;;;-149.77;74.17
60055;BME280;45930;53.514;55.904;2023-03-14T04:21:27;49399.38;;;-149.77;74.16
60055;BME280;45930;53.514;55.904;2023-03-14T04:22:28;49365.69;;;-149.77;73.95
60055;BME280;45930;53.514;55.904;2023-03-14T04:23:29;49381.56;;;-149.77;73.34
60055;BME280;45930;53.514;55.904;2023-03-14T04:24:30;49413.25;;;-149.77;73.69
60055;BME280;45930;53.514;55.904;2023-03-14T04:25:31;49393.44;;;-149.77;74.49
60055;BME280;45930;53.514;55.904;2023-03-14T04:26:31;49393.44;;;-149.77;75.33
60055;BME280;45930;53.514;55.904;2023-03-14T04:27:32;49403.34;;;-149.77;76.24
60055;BME280;45930;53.514;55.904;2023-03-14T04:28:33;49357.78;;;-149.77;75.90
60055;BME280;45930;53.514;55.904;2023-03-14T04:29:36;49411.25;;;-149.77;76.21
60055;BME280;45930;53.514;55.904;2023-03-14T04:30:37;49407.31;;;-149.77;76.14
60055;BME280;45930;53.514;55.904;2023-03-14T04:31:37;49393.44;;;-149.77;76.65
60055;BME280;45930;53.514;55.904;2023-03-14T04:32:39;49385.50;;;-149.77;76.78
60055;BME280;45930;53.514;55.904;2023-03-14T04:33:40;49385.50;;;-149.77;76.94
60055;BME280;45930;53.514;55.904;2023-03-14T04:34:41;49381.56;;;-149.77;76.38
60055;BME280;45930;53.514;55.904;2023-03-14T04:35:43;49347.88;;;-149.77;75.02
60055;BME280;45930;53.514;55.904;2023-03-14T04:36:44;49357.78;;;-149.77;75.09
60055;BME280;45930;53.514;55.904;2023-03-14T04:37:45;49377.59;;;-149.77;73.70
60055;BME280;45930;53.514;55.904;2023-03-14T04:38:49;49367.69;;;-149.77;73.21
60055;BME280;45930;53.514;55.904;2023-03-14T04:39:50;49337.97;;;-149.77;72.29
60055;BME280;45930;53.514;55.904;2023-03-14T04:40:50;49367.69;;;-149.77;72.42
60055;BME280;45930;53.514;55.904;2023-03-14T04:41:51;49349.84;;;-149.77;73.22
60055;BME280;45930;53.514;55.904;2023-03-14T04:42:52;49343.91;;;-149.77;72.51
60055;BME280;45930;53.514;55.904;2023-03-14T04:43:53;49359.75;;;-149.77;71.58
60055;BME280;45930;53.514;55.904;2023-03-14T04:44:54;49349.84;;;-149.77;70.96
60055;BME280;45930;53.514;55.904;2023-03-14T04:45:56;49334.00;;;-149.77;70.68
60055;BME280;45930;53.514;55.904;2023-03-14T04:46:57;49367.69;;;-149.77;70.88
60055;BME280;45930;53.514;55.904;2023-03-14T04:47:58;49345.91;;;-149.77;70.37
60055;BME280;45930;53.514;55.904;2023-03-14T04:48:59;49345.91;;;-149.77;69.61
60055;BME280;45930;53.514;55.904;2023-03-14T04:49:59;49353.81;;;-149.77;69.28
60055;BME280;45930;53.514;55.904;2023-03-14T04:51:00;49365.69;;;-149.77;67.86
60055;BME280;45930;53.514;55.904;2023-03-14T04:52:01;49316.19;;;-149.77;67.61
60055;BME280;45930;53.514;55.904;2023-03-14T04:53:02;49343.91;;;-149.77;68.43
60055;BME280;45930;53.514;55.904;2023-03-14T04:54:02;49332.03;;;-149.77;66.95
60055;BME280;45930;53.514;55.904;2023-03-14T04:55:03;49332.03;;;-149.77;65.42
60055;BME280;45930;53.514;55.904;2023-03-14T04:56:05;49351.84;;;-149.77;66.39
60055;BME280;45930;53.514;55.904;2023-03-14T04:57:06;49337.97;;;-149.77;67.09
60055;BME280;45930;53.514;55.904;2023-03-14T04:58:07;49328.06;;;-149.77;65.03
60055;BME280;45930;53.514;55.904;2023-03-14T04:59:08;49314.19;;;-149.77;63.84
60055;BME280;45930;53.514;55.904;2023-03-14T05:00:09;49300.34;;;-149.77;63.46
60055;BME280;45930;53.514;55.904;2023-03-14T05:01:10;49336.00;;;-149.77;63.51
60055;BME280;45930;53.514;55.904;2023-03-14T05:02:11;49353.81;;;-149.77;63.51
60055;BME280;45930;53.514;55.904;2023-03-14T05:03:13;49316.19;;;-149.77;62.74
60055;BME280;45930;53.514;55.904;2023-03-14T05:04:14;49326.09;;;-149.77;62.37
60055;BME280;45930;53.514;55.904;2023-03-14T05:05:15;49373.63;;;-149.77;62.23
60055;BME280;45930;53.514;55.904;2023-03-14T05:06:16;49377.59;;;-149.77;62.28
60055;BME280;45930;53.514;55.904;2023-03-14T05:07:17;49341.94;;;-149.77;63.11
60055;BME280;45930;53.514;55.904;2023-03-14T05:08:17;49337.97;;;-149.77;63.01
60055;BME280;45930;53.514;55.904;2023-03-14T05:09:18;49339.94;;;-149.77;62.89
60055;BME280;45930;53.514;55.904;2023-03-14T05:10:19;49345.91;;;-149.77;61.18
60055;BME280;45930;53.514;55.904;2023-03-14T05:11:20;49330.03;;;-149.77;61.42
60055;BME280;45930;53.514;55.904;2023-03-14T05:12:21;49324.09;;;-149.77;61.68
60055;BME280;45930;53.514;55.904;2023-03-14T05:13:22;49345.91;;;-149.77;60.91
60055;BME280;45930;53.514;55.904;2023-03-14T05:14:23;49320.16;;;-149.77;61.02
60055;BME280;45930;53.514;55.904;2023-03-14T05:15:24;49328.06;;;-149.77;60.65
60055;BME280;45930;53.514;55.904;2023-03-14T05:16:25;49361.75;;;-149.77;61.06
60055;BME280;45930;53.514;55.904;2023-03-14T05:17:26;49337.97;;;-149.77;61.78
60055;BME280;45930;53.514;55.904;2023-03-14T05:18:27;49337.97;;;-149.77;63.12
60055;BME280;45930;53.514;55.904;2023-03-14T05:19:27;49357.78;;;-149.77;64.20
60055;BME280;45930;53.514;55.904;2023-03-14T05:20:28;49353.81;;;-149.77;64.21
60055;BME280;45930;53.514;55.904;2023-03-14T05:21:29;49345.91;;;-149.77;62.24
60055;BME280;45930;53.514;55.904;2023-03-14T05:22:30;49359.75;;;-149.77;62.73
60055;BME280;45930;53.514;55.904;2023-03-14T05:23:30;49357.78;;;-149.77;62.55
60055;BME280;45930;53.514;55.904;2023-03-14T05:24:31;49322.13;;;-149.77;62.18
60055;BME280;45930;53.514;55.904;2023-03-14T05:25:32;49318.16;;;-149.77;61.98